createdAt,value
2022-08-04T00:00:02.665Z,10.17
2022-08-04T00:02:56.244Z,10.47
2022-08-04T00:05:37.888Z,7.57
2022-08-04T00:08:21.565Z,7.20
2022-08-04T00:10:55.794Z,7.63
2022-08-04T00:13:25.406Z,12.60
2022-08-04T00:15:54.085Z,13.07
2022-08-04T00:18:25.610Z,9.50
2022-08-04T00:20:58.303Z,5.97
2022-08-04T00:23:27.067Z,16.40
2022-08-04T00:26:17.218Z,8.43
2022-08-04T00:28:44.425Z,8.63
2022-08-04T00:31:12.037Z,8.33
2022-08-04T00:33:46.516Z,15.20
2022-08-04T00:36:13.930Z,12.40
2022-08-04T00:38:42.214Z,4.17
2022-08-04T00:41:34.199Z,8.03
2022-08-04T00:44:31.168Z,7.97
2022-08-04T00:47:16.506Z,7.63
2022-08-04T00:50:01.917Z,11.10
2022-08-04T00:52:47.062Z,7.77
2022-08-04T00:55:35.933Z,12.13
2022-08-04T00:58:21.155Z,6.80
2022-08-04T01:00:57.168Z,8.03
2022-08-04T01:03:48.581Z,15.53
2022-08-04T01:06:36.486Z,15.87
2022-08-04T01:09:30.649Z,10.30
2022-08-04T01:12:26.136Z,15.13
2022-08-04T01:15:05.572Z,11.27
2022-08-04T01:17:54.939Z,12.63
2022-08-04T01:20:25.822Z,19.20
2022-08-04T01:23:21.896Z,12.63
2022-08-04T01:26:02.814Z,15.27
2022-08-04T01:29:09.723Z,12.40
2022-08-04T01:31:39.371Z,13.23
2022-08-04T01:34:09.786Z,11.53
2022-08-04T01:36:39.725Z,15.63
2022-08-04T01:39:39.033Z,12.13
2022-08-04T01:42:06.481Z,12.10
2022-08-04T01:44:39.313Z,9.67
2022-08-04T01:47:07.839Z,12.43
2022-08-04T01:49:40.103Z,10.57
2022-08-04T01:52:10.134Z,16.07
2022-08-04T01:54:41.055Z,18.07
2022-08-04T01:57:37.521Z,14.23
2022-08-04T02:00:00.197Z,11.33
2022-08-04T02:02:27.257Z,16.83
2022-08-04T02:04:54.113Z,11.23
2022-08-04T02:07:28.274Z,15.17
2022-08-04T02:09:57.855Z,12.00
2022-08-04T02:12:58.278Z,12.03
2022-08-04T02:15:39.560Z,10.70
2022-08-04T02:18:23.350Z,12.10
2022-08-04T02:20:55.634Z,21.57
2022-08-04T02:23:40.814Z,11.77
2022-08-04T02:26:28.603Z,15.17
2022-08-04T02:29:32.229Z,11.93
2022-08-04T02:32:06.153Z,14.10
2022-08-04T02:34:43.463Z,14.80
2022-08-04T02:37:14.710Z,6.40
2022-08-04T02:39:48.476Z,11.93
2022-08-04T02:42:17.208Z,12.83
2022-08-04T02:44:48.805Z,16.67
2022-08-04T02:47:21.179Z,14.33
2022-08-04T02:49:51.105Z,12.93
2022-08-04T02:52:19.987Z,14.33
2022-08-04T02:54:50.852Z,11.17
2022-08-04T02:57:20.047Z,12.57
2022-08-04T03:00:14.294Z,12.33
2022-08-04T03:02:49.753Z,10.47
2022-08-04T03:05:25.142Z,10.43
2022-08-04T03:08:37.247Z,15.23
2022-08-04T03:11:21.451Z,8.67
2022-08-04T03:14:01.124Z,9.50
2022-08-04T03:16:49.622Z,19.17
2022-08-04T03:19:49.700Z,25.20
2022-08-04T03:23:12.958Z,14.13
2022-08-04T03:26:09.673Z,14.53
2022-08-04T03:29:09.861Z,15.17
2022-08-04T03:31:54.242Z,12.07
2022-08-04T03:34:49.013Z,16.27
2022-08-04T03:37:49.641Z,14.00
2022-08-04T03:40:36.218Z,12.53
2022-08-04T03:43:58.977Z,15.60
2022-08-04T03:46:20.539Z,15.67
2022-08-04T03:49:08.146Z,14.67
2022-08-04T03:52:34.830Z,18.63
2022-08-04T03:55:38.687Z,10.90
2022-08-04T03:58:17.007Z,13.40
2022-08-04T04:01:17.451Z,15.93
2022-08-04T04:04:12.198Z,7.37
2022-08-04T04:07:03.511Z,12.93
2022-08-04T04:09:45.569Z,9.57
2022-08-04T04:12:19.047Z,8.80
2022-08-04T04:15:03.493Z,8.87
2022-08-04T04:17:39.306Z,12.90
2022-08-04T04:20:43.189Z,12.50
2022-08-04T04:23:31.717Z,12.03
2022-08-04T04:26:10.337Z,6.37
2022-08-04T04:29:03.379Z,9.90
2022-08-04T04:31:59.357Z,8.13
2022-08-04T04:34:46.377Z,10.40
2022-08-04T04:37:34.348Z,7.23
2022-08-04T04:40:34.055Z,6.07
2022-08-04T04:43:23.907Z,7.87
2022-08-04T04:46:32.259Z,7.17
2022-08-04T04:49:23.245Z,6.27
2022-08-04T04:51:55.894Z,7.77
2022-08-04T04:54:22.456Z,15.03
2022-08-04T04:57:03.270Z,39.57
2022-08-04T04:59:37.014Z,29.00
2022-08-04T05:02:27.667Z,40.37
2022-08-04T05:05:24.426Z,31.30
2022-08-04T05:08:43.440Z,33.10
2022-08-04T05:11:33.250Z,12.80
2022-08-04T05:14:36.110Z,40.17
2022-08-04T05:17:27.817Z,53.57
2022-08-04T05:20:22.056Z,42.27
2022-08-04T05:22:53.978Z,43.33
2022-08-04T05:25:39.146Z,73.47
2022-08-04T05:28:18.274Z,52.83
2022-08-04T05:30:51.286Z,55.03
2022-08-04T05:33:29.113Z,70.83
2022-08-04T05:36:18.375Z,33.67
2022-08-04T05:38:52.785Z,18.90
2022-08-04T05:41:21.274Z,32.73
2022-08-04T05:43:50.007Z,30.13
2022-08-04T05:46:18.311Z,38.17
2022-08-04T05:48:45.679Z,33.33
2022-08-04T05:51:13.751Z,30.77
2022-08-04T05:53:44.203Z,37.53
2022-08-04T05:56:14.101Z,40.03
2022-08-04T05:58:42.365Z,17.70
2022-08-04T06:01:10.889Z,24.43
2022-08-04T06:03:39.309Z,8.73
2022-08-04T06:06:07.647Z,14.50
2022-08-04T06:08:34.312Z,9.33
2022-08-04T06:11:04.990Z,5.07
2022-08-04T06:13:48.869Z,8.80
2022-08-04T06:16:29.988Z,4.93
2022-08-04T06:19:59.423Z,4.57
2022-08-04T06:21:53.622Z,7.85
2022-08-04T06:24:24.754Z,15.52
2022-08-04T06:26:52.110Z,11.70
2022-08-04T06:29:31.957Z,6.70
2022-08-04T06:32:30.085Z,12.60
2022-08-04T06:34:50.261Z,11.35
2022-08-04T06:37:24.137Z,3.95
2022-08-04T06:40:29.806Z,8.38
2022-08-04T06:42:54.461Z,16.45
2022-08-04T06:45:21.952Z,10.80
2022-08-04T06:47:49.585Z,12.00
2022-08-04T06:51:32.503Z,8.65
2022-08-04T06:53:04.370Z,10.80
2022-08-04T06:55:32.955Z,17.25
2022-08-04T06:58:03.467Z,8.95
2022-08-04T07:00:32.133Z,7.97
2022-08-04T07:02:59.303Z,5.60
2022-08-04T07:05:26.519Z,8.10
2022-08-04T07:07:57.319Z,7.65
2022-08-04T07:10:27.667Z,11.27
2022-08-04T07:12:56.473Z,16.30
2022-08-04T07:15:24.438Z,9.60
2022-08-04T07:17:52.513Z,7.30
2022-08-04T07:20:30.519Z,5.20
2022-08-04T07:23:06.957Z,23.48
2022-08-04T07:25:58.933Z,9.98
2022-08-04T07:28:25.298Z,19.50
2022-08-04T07:30:53.852Z,8.38
2022-08-04T07:33:21.102Z,10.30
2022-08-04T07:36:04.592Z,11.77
2022-08-04T07:38:37.481Z,5.68
2022-08-04T07:41:35.442Z,9.25
2022-08-04T07:43:54.688Z,7.35
2022-08-04T07:46:21.343Z,8.88
2022-08-04T07:48:48.371Z,8.45
2022-08-04T07:51:16.756Z,10.27
2022-08-04T07:53:54.600Z,6.60
2022-08-04T07:56:23.417Z,6.90
2022-08-04T07:58:50.444Z,4.95
2022-08-04T08:01:18.832Z,2.70
2022-08-04T08:03:46.428Z,7.18
2022-08-04T08:06:31.575Z,7.25
2022-08-04T08:09:02.065Z,4.05
2022-08-04T08:12:35.441Z,5.55
2022-08-04T08:14:26.828Z,4.30
2022-08-04T08:16:54.048Z,2.70
2022-08-04T08:19:21.201Z,6.40
2022-08-04T08:21:59.745Z,4.75
2022-08-04T08:24:30.820Z,6.93
2022-08-04T08:26:58.650Z,2.47
2022-08-04T08:29:26.156Z,5.45
2022-08-04T08:31:55.564Z,5.28
2022-08-04T08:34:28.146Z,4.68
2022-08-04T08:37:06.734Z,3.90
2022-08-04T08:39:42.946Z,7.95
2022-08-04T08:42:43.346Z,10.32
2022-08-04T08:45:31.859Z,6.18
2022-08-04T08:48:26.218Z,5.93
2022-08-04T08:51:14.345Z,6.13
2022-08-04T08:54:08.294Z,6.40
2022-08-04T08:56:54.058Z,10.32
2022-08-04T08:59:28.299Z,6.93
2022-08-04T09:02:26.352Z,2.90
2022-08-04T09:04:55.780Z,4.60
2022-08-04T09:07:41.538Z,6.18
2022-08-04T09:10:37.198Z,3.38
2022-08-04T09:13:10.538Z,7.85
2022-08-04T09:15:54.034Z,6.65
2022-08-04T09:18:43.227Z,2.90
2022-08-04T09:21:23.047Z,4.82
2022-08-04T09:24:36.543Z,3.60
2022-08-04T09:27:09.985Z,9.30
2022-08-04T09:30:09.149Z,4.13
2022-08-04T09:32:38.737Z,2.85
2022-08-04T09:36:01.230Z,3.72
2022-08-04T09:38:46.200Z,13.35
2022-08-04T09:41:48.566Z,4.22
2022-08-04T09:44:49.207Z,5.35
2022-08-04T09:47:43.078Z,3.53
2022-08-04T09:50:32.743Z,2.90
2022-08-04T09:53:20.859Z,5.13
2022-08-04T09:55:53.737Z,3.20
2022-08-04T09:58:48.777Z,2.42
2022-08-04T10:01:23.098Z,2.22
2022-08-04T10:04:05.126Z,4.60
2022-08-04T10:06:37.630Z,4.40
2022-08-04T10:09:35.249Z,2.67
2022-08-04T10:12:23.778Z,3.78
2022-08-04T10:15:11.802Z,3.33
2022-08-04T10:18:12.679Z,5.65
2022-08-04T10:21:00.049Z,4.97
2022-08-04T10:24:07.587Z,6.05
2022-08-04T10:26:58.107Z,3.42
2022-08-04T10:29:30.705Z,6.57
2022-08-04T10:32:16.328Z,6.10
2022-08-04T10:35:04.998Z,3.08
2022-08-04T10:38:33.413Z,2.78
2022-08-04T10:41:25.154Z,3.33
2022-08-04T10:44:10.483Z,3.83
2022-08-04T10:46:46.235Z,8.65
2022-08-04T10:49:33.698Z,2.90
2022-08-04T10:52:24.788Z,5.60
2022-08-04T10:55:16.119Z,5.45
2022-08-04T10:57:52.000Z,5.32
2022-08-04T11:00:24.294Z,8.77
2022-08-04T11:03:02.601Z,4.72
2022-08-04T11:05:55.666Z,5.38
2022-08-04T11:08:35.689Z,12.02
2022-08-04T11:12:00.429Z,6.72
2022-08-04T11:14:24.389Z,7.28
2022-08-04T11:16:56.605Z,4.68
2022-08-04T11:20:24.872Z,6.90
2022-08-04T11:23:12.848Z,9.98
2022-08-04T11:26:01.881Z,7.20
2022-08-04T11:28:46.339Z,6.22
2022-08-04T11:31:24.282Z,7.18
2022-08-04T11:34:19.738Z,11.68
2022-08-04T11:36:55.859Z,7.10
2022-08-04T11:39:42.313Z,10.10
2022-08-04T11:42:25.890Z,9.18
2022-08-04T11:45:16.627Z,5.05
2022-08-04T11:47:51.948Z,5.47
2022-08-04T11:50:24.222Z,6.40
2022-08-04T11:52:56.371Z,10.15
2022-08-04T11:55:26.985Z,13.05
2022-08-04T11:57:54.911Z,7.72
2022-08-04T12:00:24.508Z,5.20
2022-08-04T12:03:15.623Z,6.38
2022-08-04T12:05:58.304Z,5.05
2022-08-04T12:08:47.821Z,6.38
2022-08-04T12:11:39.574Z,9.02
2022-08-04T12:14:31.326Z,7.43
2022-08-04T12:17:07.258Z,5.25
2022-08-04T12:19:52.824Z,7.55
2022-08-04T12:22:36.981Z,5.55
2022-08-04T12:25:16.398Z,6.82
2022-08-04T12:27:59.843Z,5.20
2022-08-04T12:30:58.403Z,11.65
2022-08-04T12:33:22.332Z,6.07
2022-08-04T12:36:10.290Z,4.65
2022-08-04T12:38:44.619Z,8.70
2022-08-04T12:41:16.016Z,7.93
2022-08-04T12:43:43.379Z,5.88
2022-08-04T12:46:13.210Z,9.38
2022-08-04T12:48:45.463Z,6.75
2022-08-04T12:52:06.472Z,8.18
2022-08-04T12:54:00.758Z,16.45
2022-08-04T12:56:29.592Z,12.32
2022-08-04T12:59:03.113Z,5.10
2022-08-04T13:02:09.338Z,11.27
2022-08-04T13:04:21.697Z,14.20
2022-08-04T13:07:03.196Z,10.35
2022-08-04T13:09:34.275Z,9.27
2022-08-04T13:12:04.873Z,14.15
2022-08-04T13:14:38.174Z,9.75
2022-08-04T13:17:06.441Z,7.60
2022-08-04T13:26:41.526Z,6.15
2022-08-04T13:28:02.134Z,9.80
2022-08-04T13:30:24.089Z,7.25
2022-08-04T13:30:25.167Z,9.02
2022-08-04T13:30:33.235Z,9.18
2022-08-04T13:33:02.569Z,5.97
2022-08-04T13:35:55.217Z,7.47
2022-08-04T13:38:19.915Z,19.88
2022-08-04T13:40:47.032Z,12.55
2022-08-04T13:43:50.022Z,12.77
2022-08-04T13:46:27.832Z,10.55
2022-08-04T13:49:26.063Z,7.93
2022-08-04T13:52:11.339Z,10.93
2022-08-04T13:54:42.812Z,14.23
2022-08-04T13:57:19.395Z,14.93
2022-08-04T13:59:51.676Z,13.88
2022-08-04T14:02:39.494Z,15.32
2022-08-04T14:05:18.537Z,7.50
2022-08-04T14:07:50.864Z,20.33
2022-08-04T14:10:17.835Z,12.60
2022-08-04T14:12:50.969Z,9.00
2022-08-04T14:16:02.158Z,12.45
2022-08-04T14:18:32.213Z,13.70
2022-08-04T14:21:04.064Z,8.45
2022-08-04T14:23:47.469Z,11.82
2022-08-04T14:26:17.825Z,8.02
2022-08-04T14:29:25.803Z,8.07
2022-08-04T14:31:31.661Z,9.32
2022-08-04T14:34:04.177Z,10.20
2022-08-04T14:37:17.990Z,10.20
2022-08-04T14:40:08.763Z,8.40
2022-08-04T14:42:55.681Z,8.70
2022-08-04T14:45:32.064Z,14.05
2022-08-04T14:47:59.885Z,11.73
2022-08-04T14:50:40.178Z,9.98
2022-08-04T14:53:21.317Z,11.93
2022-08-04T14:55:50.747Z,10.35
2022-08-04T14:58:36.510Z,7.18
2022-08-04T15:01:10.347Z,9.60
2022-08-04T15:03:51.046Z,7.55
2022-08-04T15:06:27.933Z,8.30
2022-08-04T15:08:57.408Z,7.88
2022-08-04T15:11:24.865Z,6.07
2022-08-04T15:13:52.988Z,9.82
2022-08-04T15:16:21.503Z,12.07
2022-08-04T15:18:49.435Z,10.05
2022-08-04T15:21:17.331Z,8.30
2022-08-04T15:23:44.088Z,16.17
2022-08-04T15:26:17.907Z,16.83
2022-08-04T15:28:50.285Z,9.82
2022-08-04T15:32:06.086Z,9.23
2022-08-04T15:34:08.621Z,15.02
2022-08-04T15:36:56.088Z,13.75
2022-08-04T15:39:43.268Z,9.60
2022-08-04T15:42:30.382Z,10.95
2022-08-04T15:46:41.245Z,10.00
2022-08-04T15:48:12.441Z,11.25
2022-08-04T15:51:00.042Z,6.22
2022-08-04T15:54:01.425Z,10.07
2022-08-04T15:56:23.798Z,12.68
2022-08-04T15:58:55.059Z,13.02
2022-08-04T16:01:22.321Z,13.80
2022-08-04T16:04:00.925Z,11.32
2022-08-04T16:06:29.432Z,13.00
2022-08-04T16:09:01.987Z,9.27
2022-08-04T16:11:32.907Z,9.98
2022-08-04T16:13:59.931Z,7.53
2022-08-04T16:16:47.866Z,9.77
2022-08-04T16:19:35.390Z,11.80
2022-08-04T16:22:04.018Z,9.02
2022-08-04T16:24:41.573Z,9.68
2022-08-04T16:27:13.174Z,10.27
2022-08-04T16:29:39.797Z,8.80
2022-08-04T16:32:10.590Z,12.00
2022-08-04T16:34:56.009Z,22.58
2022-08-04T16:37:29.989Z,11.77
2022-08-04T16:40:34.526Z,8.00
2022-08-04T16:43:09.099Z,15.55
2022-08-04T16:45:52.465Z,8.93
2022-08-04T16:48:26.957Z,14.65
2022-08-04T16:50:56.245Z,12.25
2022-08-04T16:53:52.115Z,13.40
2022-08-04T16:56:14.669Z,8.45
2022-08-04T16:58:50.102Z,14.55
2022-08-04T17:01:33.699Z,6.72
2022-08-04T17:04:04.958Z,12.73
2022-08-04T17:06:40.903Z,7.93
2022-08-04T17:09:16.243Z,11.02
2022-08-04T17:11:44.509Z,14.35
2022-08-04T17:14:11.541Z,10.65
2022-08-04T17:16:43.110Z,14.88
2022-08-04T17:19:24.422Z,10.68
2022-08-04T17:22:00.419Z,12.90
2022-08-04T17:24:29.905Z,9.10
2022-08-04T17:26:58.434Z,6.60
2022-08-04T17:29:43.492Z,10.00
2022-08-04T17:32:20.716Z,10.50
2022-08-04T17:34:53.383Z,11.65
2022-08-04T17:37:52.266Z,9.32
2022-08-04T17:40:11.602Z,11.73
2022-08-04T17:42:40.203Z,12.57
2022-08-04T17:48:02.838Z,14.20
2022-08-04T17:50:34.782Z,6.78
2022-08-04T17:53:12.287Z,8.10
2022-08-04T17:55:49.513Z,11.13
2022-08-04T17:58:22.810Z,5.18
2022-08-04T18:01:16.560Z,18.92
2022-08-04T18:03:51.650Z,8.70
2022-08-04T18:06:19.895Z,6.72
2022-08-04T18:08:57.743Z,14.93
2022-08-04T18:11:28.763Z,8.73
2022-08-04T18:14:09.146Z,4.63
2022-08-04T18:16:45.446Z,9.90
2022-08-04T18:19:15.130Z,12.98
2022-08-04T18:21:46.093Z,9.38
2022-08-04T18:24:35.466Z,9.57
2022-08-04T18:27:19.927Z,12.15
2022-08-04T18:29:56.453Z,7.00
2022-08-04T18:32:34.111Z,12.65
2022-08-04T18:35:05.496Z,6.30
2022-08-04T18:38:11.452Z,10.35
2022-08-04T18:40:26.301Z,8.63
2022-08-04T18:42:58.215Z,10.38
2022-08-04T18:45:34.870Z,4.97
2022-08-04T18:48:14.684Z,6.47
2022-08-04T18:51:09.981Z,13.82
2022-08-04T18:53:35.254Z,9.52
2022-08-04T18:56:19.965Z,11.07
2022-08-04T18:58:52.693Z,6.13
2022-08-04T19:01:19.895Z,10.70
2022-08-04T19:03:53.967Z,8.55
2022-08-04T19:09:20.919Z,7.72
2022-08-04T19:11:54.526Z,9.68
2022-08-04T19:14:22.186Z,9.07
2022-08-04T19:16:49.566Z,7.65
2022-08-04T19:19:17.865Z,6.38
2022-08-04T19:24:34.638Z,10.43
2022-08-04T19:27:06.793Z,7.20
2022-08-04T19:29:37.928Z,6.50
2022-08-04T19:32:14.435Z,12.43
2022-08-04T19:34:46.276Z,7.70
2022-08-04T19:37:58.369Z,9.13
2022-08-04T19:40:07.330Z,7.53
2022-08-04T19:42:34.807Z,11.38
2022-08-04T19:45:02.371Z,10.25
2022-08-04T19:48:12.257Z,8.55
2022-08-04T19:50:15.968Z,12.23
2022-08-04T19:52:49.196Z,10.73
2022-08-04T19:58:09.101Z,5.67
2022-08-04T20:00:37.811Z,8.30
2022-08-04T20:03:11.518Z,9.90
2022-08-04T20:05:53.732Z,7.67
2022-08-04T20:08:28.192Z,10.10
2022-08-04T20:10:55.178Z,8.90
2022-08-04T20:13:22.414Z,11.87
2022-08-04T20:15:57.899Z,8.43
2022-08-04T20:18:36.859Z,10.90
2022-08-04T20:21:19.692Z,14.20
2022-08-04T20:23:51.930Z,10.13
2022-08-04T20:26:18.699Z,7.70
2022-08-04T20:28:45.673Z,10.63
2022-08-04T20:34:01.171Z,5.90
2022-08-04T20:36:27.868Z,9.20
2022-08-04T20:38:55.494Z,7.63
2022-08-04T20:41:22.681Z,6.90
2022-08-04T20:43:49.667Z,7.03
2022-08-04T20:46:17.697Z,6.73
2022-08-04T20:48:45.441Z,7.63
2022-08-04T20:51:17.761Z,6.87
2022-08-04T20:53:52.963Z,6.23
2022-08-04T20:56:30.859Z,8.73
2022-08-04T20:58:59.534Z,5.20
2022-08-04T21:01:29.551Z,6.47
2022-08-04T21:04:27.242Z,6.27
2022-08-04T21:06:54.230Z,6.93
2022-08-04T21:09:37.063Z,5.67
2022-08-04T21:12:08.848Z,6.67
2022-08-04T21:14:36.058Z,8.00
2022-08-04T21:19:49.921Z,4.13
2022-08-04T21:22:29.697Z,6.70
2022-08-04T21:24:56.587Z,4.43
2022-08-04T21:27:23.398Z,4.83
2022-08-04T21:29:55.390Z,5.93
2022-08-04T21:32:27.251Z,6.23
2022-08-04T21:34:55.003Z,6.63
2022-08-04T21:37:21.677Z,11.53
2022-08-04T21:39:58.909Z,7.87
2022-08-04T21:42:28.845Z,7.90
2022-08-04T21:44:57.633Z,6.57
2022-08-04T21:47:24.365Z,8.60
2022-08-04T21:49:56.211Z,9.53
2022-08-04T21:52:24.381Z,11.13
2022-08-04T21:54:54.171Z,10.33
2022-08-04T21:57:24.947Z,9.77
2022-08-04T21:59:52.360Z,9.17
2022-08-04T22:02:19.078Z,10.50
2022-08-04T22:04:45.831Z,13.33
2022-08-04T22:07:12.437Z,16.37
2022-08-04T22:09:45.648Z,13.67
2022-08-04T22:12:27.090Z,9.50
2022-08-04T22:14:59.599Z,8.80
2022-08-04T22:17:35.311Z,12.27
2022-08-04T22:20:03.700Z,10.23
2022-08-04T22:22:34.194Z,10.57
2022-08-04T22:25:12.577Z,9.97
2022-08-04T22:28:01.096Z,10.53
2022-08-04T22:30:33.319Z,8.57
2022-08-04T22:33:07.559Z,9.97
2022-08-04T22:35:43.890Z,10.67
2022-08-04T22:38:21.291Z,12.20
2022-08-04T22:41:00.473Z,9.30
2022-08-04T22:43:32.881Z,13.67
2022-08-04T22:46:03.833Z,7.83
2022-08-04T22:48:31.991Z,8.43
2022-08-04T22:50:59.699Z,13.97
2022-08-04T22:53:26.607Z,11.40
2022-08-04T22:56:06.516Z,12.43
2022-08-04T22:58:36.441Z,10.70
2022-08-04T23:01:07.980Z,11.53
2022-08-04T23:03:36.801Z,10.33
2022-08-04T23:06:11.052Z,9.97
2022-08-04T23:08:39.423Z,11.90
2022-08-04T23:11:10.555Z,10.57
2022-08-04T23:13:37.713Z,8.30
2022-08-04T23:16:09.859Z,6.33
2022-08-04T23:18:37.294Z,11.63
2022-08-04T23:21:10.061Z,7.27
2022-08-04T23:23:38.116Z,10.27
2022-08-04T23:26:14.215Z,6.67
2022-08-04T23:28:41.570Z,13.53
2022-08-04T23:31:10.138Z,8.70
2022-08-04T23:33:51.207Z,17.37
2022-08-04T23:36:29.617Z,14.70
2022-08-04T23:39:04.207Z,18.73
2022-08-04T23:41:54.419Z,15.30
2022-08-04T23:44:24.381Z,12.60
2022-08-04T23:46:57.719Z,17.33
2022-08-04T23:49:25.205Z,15.03
2022-08-04T23:52:15.780Z,12.67
2022-08-04T23:54:54.536Z,16.50
2022-08-04T23:57:22.036Z,14.10
2022-08-04T23:59:54.175Z,10.77
